Terminal Aerodrome Forecast
Issued by NWS

Home | Current Version | Previous Version | Text Only | Print | Product List | Glossary On
Versions: 1 2 3 4 5 6 7 8 9 10 11 12 13 14 15 16 17 18 19 20 21 22 23 24 25
000
FTUS44 KOUN 271521 AAA
TAFLAW
TAF AMD
KLAW 271521Z 2715/2812 36015G22KT 1SM -SN SCT007 OVC012
      TEMPO 2715/2717 1/2SM SN FG OVC007
     FM271800 36013KT P6SM SCT040 BKN080
     FM280000 35006KT P6SM SCT120=

USA.gov is the U.S. government's official web portal to all federal, state and local government web resources and services.